Rose Hill, Texas
Current Conditions -  °F | °C
As of 4:53 PM on Tuesday 25 Nov 2014 (Local Time) from KDWH Reporting Station
Clear Clear  
Wind Chill: 16°   Ceiling: Unl
Heat Index: 16°   Visibility: 10mi
Dew Point: -3°   Wind: 5mph
Humidity: 27%   Direction: 290°WNW
Pressure: 30.22"   Gusts: NA
Location:  30.0721°N, 95.6453°W
Report Text: KDWH 252253Z 29004KT 10SM CLR 16/M03 A3022 RMK AO2 SLP232 T01611028
Loading
Personal Weather Stations






























Interactive Weather Map New forecast layout! Learn more

10-Day Weather Forecast

Advertisements
Track Severe Weather on mobile